createdAt,value
2023-05-17T00:01:48.057Z,1.50
2023-05-17T00:04:15.318Z,1.70
2023-05-17T00:06:42.524Z,1.50
2023-05-17T00:09:10.191Z,1.60
2023-05-17T00:11:37.418Z,1.40
2023-05-17T00:14:04.666Z,1.50
2023-05-17T00:16:31.907Z,1.23
2023-05-17T00:18:59.165Z,1.40
2023-05-17T00:21:26.586Z,1.37
2023-05-17T00:23:53.892Z,1.40
2023-05-17T00:26:21.088Z,1.30
2023-05-17T00:28:49.803Z,1.60
2023-05-17T00:31:16.975Z,1.13
2023-05-17T00:33:44.266Z,1.33
2023-05-17T00:36:11.679Z,1.50
2023-05-17T00:38:38.873Z,1.33
2023-05-17T00:41:06.240Z,1.50
2023-05-17T00:43:33.614Z,1.50
2023-05-17T00:46:00.828Z,1.33
2023-05-17T00:48:29.631Z,1.60
2023-05-17T00:50:57.286Z,1.23
2023-05-17T00:53:24.573Z,1.67
2023-05-17T00:55:51.881Z,1.50
2023-05-17T00:58:19.144Z,1.43
2023-05-17T01:00:46.473Z,1.27
2023-05-17T01:03:13.831Z,1.70
2023-05-17T01:05:41.325Z,1.50
2023-05-17T01:08:08.590Z,1.30
2023-05-17T01:10:58.415Z,1.20
2023-05-17T01:13:32.925Z,1.40
2023-05-17T01:16:11.423Z,1.10
2023-05-17T01:18:41.983Z,1.43
2023-05-17T01:21:18.571Z,1.40
2023-05-17T01:24:04.598Z,1.40
2023-05-17T01:26:43.983Z,1.27
2023-05-17T01:29:13.046Z,1.20
2023-05-17T01:31:40.346Z,1.60
2023-05-17T01:34:08.504Z,1.40
2023-05-17T01:36:36.239Z,1.57
2023-05-17T01:39:03.683Z,1.40
2023-05-17T01:41:44.443Z,1.40
2023-05-17T01:44:11.646Z,1.53
2023-05-17T01:46:40.449Z,1.40
2023-05-17T01:49:11.718Z,1.57
2023-05-17T01:51:44.240Z,1.50
2023-05-17T01:54:12.420Z,1.40
2023-05-17T01:56:43.676Z,1.40
2023-05-17T01:59:12.358Z,1.70
2023-05-17T02:01:40.052Z,1.50
2023-05-17T02:04:07.391Z,1.43
2023-05-17T02:06:34.685Z,1.47
2023-05-17T02:09:03.081Z,2.10
2023-05-17T02:11:30.653Z,1.60
2023-05-17T02:13:58.877Z,1.30
2023-05-17T02:16:26.214Z,1.90
2023-05-17T02:18:53.509Z,1.40
2023-05-17T02:21:20.836Z,1.60
2023-05-17T02:23:48.129Z,1.43
2023-05-17T02:26:15.326Z,1.57
2023-05-17T02:28:42.532Z,1.50
2023-05-17T02:31:09.842Z,1.57
2023-05-17T02:33:37.560Z,1.63
2023-05-17T02:36:05.183Z,1.60
2023-05-17T02:38:32.481Z,1.43
2023-05-17T02:40:59.724Z,1.40
2023-05-17T02:43:26.926Z,1.40
2023-05-17T02:45:54.097Z,1.60
2023-05-17T02:48:21.473Z,1.40
2023-05-17T02:50:48.678Z,1.60
2023-05-17T02:53:16.038Z,1.47
2023-05-17T02:55:43.253Z,1.60
2023-05-17T02:58:10.654Z,1.50
2023-05-17T03:00:37.852Z,1.70
2023-05-17T03:03:05.215Z,1.50
2023-05-17T03:05:34.146Z,1.50
2023-05-17T03:08:01.429Z,1.60
2023-05-17T03:10:28.612Z,1.73
2023-05-17T03:12:55.842Z,1.60
2023-05-17T03:15:23.696Z,1.53
2023-05-17T03:17:51.007Z,1.40
2023-05-17T03:20:18.384Z,1.40
2023-05-17T03:22:45.585Z,1.20
2023-05-17T03:25:12.799Z,1.40
2023-05-17T03:27:40.029Z,1.37
2023-05-17T03:30:07.661Z,1.23
2023-05-17T03:32:35.023Z,1.40
2023-05-17T03:35:02.438Z,1.20
2023-05-17T03:37:29.684Z,1.10
2023-05-17T03:39:56.910Z,1.40
2023-05-17T03:42:24.196Z,1.30
2023-05-17T03:44:51.418Z,1.20
2023-05-17T03:47:18.583Z,1.33
2023-05-17T03:49:45.816Z,1.30
2023-05-17T03:52:13.012Z,1.30
2023-05-17T03:54:40.263Z,1.27
2023-05-17T03:57:07.542Z,1.00
2023-05-17T03:59:34.762Z,1.20
2023-05-17T04:02:02.047Z,0.77
2023-05-17T04:04:29.341Z,0.80
2023-05-17T04:06:56.628Z,0.83
2023-05-17T04:09:23.864Z,0.90
2023-05-17T04:11:51.077Z,0.87
2023-05-17T04:14:19.556Z,0.70
2023-05-17T04:16:46.808Z,1.07
2023-05-17T04:19:14.065Z,1.00
2023-05-17T04:21:41.333Z,0.70
2023-05-17T04:24:08.802Z,0.60
2023-05-17T04:26:36.044Z,0.90
2023-05-17T04:29:03.295Z,0.80
2023-05-17T04:31:32.298Z,1.10
2023-05-17T04:33:59.700Z,0.60
2023-05-17T04:36:26.907Z,0.90
2023-05-17T04:38:54.106Z,0.53
2023-05-17T04:41:21.329Z,0.67
2023-05-17T04:43:48.590Z,0.83
2023-05-17T04:46:15.970Z,0.67
2023-05-17T04:48:43.275Z,0.80
2023-05-17T04:51:10.631Z,0.50
2023-05-17T04:53:37.812Z,0.60
2023-05-17T04:56:05.096Z,0.50
2023-05-17T04:58:34.348Z,0.60
2023-05-17T05:01:01.563Z,0.73
2023-05-17T05:03:28.762Z,0.50
2023-05-17T05:05:56.044Z,0.30
2023-05-17T05:08:23.331Z,0.33
2023-05-17T05:10:51.505Z,0.73
2023-05-17T05:13:18.723Z,0.97
2023-05-17T05:15:45.965Z,0.60
2023-05-17T05:18:13.285Z,0.60
2023-05-17T05:20:40.557Z,0.30
2023-05-17T05:23:07.734Z,0.60
2023-05-17T05:25:35.543Z,0.80
2023-05-17T05:28:02.767Z,0.60
2023-05-17T05:30:30.060Z,0.67
2023-05-17T05:32:57.364Z,0.47
2023-05-17T05:35:29.401Z,0.70
2023-05-17T05:37:57.739Z,0.63
2023-05-17T05:40:24.914Z,0.80
2023-05-17T05:42:52.431Z,0.67
2023-05-17T05:45:19.938Z,0.50
2023-05-17T05:47:47.198Z,0.60
2023-05-17T05:50:14.408Z,0.70
2023-05-17T05:52:41.570Z,1.10
2023-05-17T05:55:09.119Z,0.50
2023-05-17T05:57:36.579Z,0.70
2023-05-17T06:00:04.942Z,0.97
2023-05-17T06:02:32.361Z,0.70
2023-05-17T06:04:59.681Z,0.87
2023-05-17T06:07:26.906Z,0.77
2023-05-17T06:09:54.105Z,0.90
2023-05-17T06:12:21.377Z,1.10
2023-05-17T06:14:48.669Z,0.90
2023-05-17T06:17:16.058Z,0.60
2023-05-17T06:19:43.298Z,1.20
2023-05-17T06:22:10.625Z,0.80
2023-05-17T06:24:37.876Z,0.87
2023-05-17T06:27:05.296Z,0.80
2023-05-17T06:29:32.477Z,0.90
2023-05-17T06:31:59.950Z,0.80
2023-05-17T06:34:27.218Z,0.70
2023-05-17T06:36:54.543Z,0.87
2023-05-17T06:39:21.841Z,0.73
2023-05-17T06:41:49.038Z,0.70
2023-05-17T06:44:16.294Z,0.80
2023-05-17T06:46:43.490Z,0.80
2023-05-17T06:49:10.986Z,0.90
2023-05-17T06:51:38.270Z,0.70
2023-05-17T06:54:05.794Z,0.90
2023-05-17T06:56:32.983Z,1.00
2023-05-17T06:59:00.717Z,0.77
2023-05-17T07:01:28.146Z,0.97
2023-05-17T07:03:55.678Z,0.80
2023-05-17T07:06:22.960Z,0.80
2023-05-17T07:08:50.170Z,0.63
2023-05-17T07:11:17.376Z,1.00
2023-05-17T07:13:45.735Z,0.77
2023-05-17T07:16:13.954Z,1.07
2023-05-17T07:18:41.265Z,0.80
2023-05-17T07:21:08.610Z,1.10
2023-05-17T07:23:35.866Z,0.97
2023-05-17T07:26:03.226Z,0.90
2023-05-17T07:28:30.465Z,1.00
2023-05-17T07:30:57.718Z,0.93
2023-05-17T07:33:24.914Z,0.93
2023-05-17T07:35:52.189Z,1.20
2023-05-17T07:38:19.425Z,0.83
2023-05-17T07:40:46.639Z,1.00
2023-05-17T07:43:13.880Z,0.70
2023-05-17T07:45:41.176Z,0.80
2023-05-17T07:48:08.530Z,1.00
2023-05-17T07:50:36.127Z,1.17
2023-05-17T07:53:03.409Z,0.93
2023-05-17T07:55:30.823Z,0.70
2023-05-17T07:57:58.171Z,0.90
2023-05-17T08:00:25.544Z,0.87
2023-05-17T08:02:52.911Z,0.87
2023-05-17T08:05:20.143Z,0.90
2023-05-17T08:07:47.398Z,0.90
2023-05-17T08:10:14.638Z,0.80
2023-05-17T08:12:41.870Z,0.87
2023-05-17T08:15:09.536Z,0.80
2023-05-17T08:17:36.839Z,0.73
2023-05-17T08:20:06.159Z,0.60
2023-05-17T08:22:33.412Z,0.77
2023-05-17T08:25:00.759Z,0.77
2023-05-17T08:27:30.964Z,0.70
2023-05-17T08:29:58.348Z,0.77
2023-05-17T08:32:26.184Z,0.90
2023-05-17T08:34:53.429Z,0.87
2023-05-17T08:37:20.654Z,0.70
2023-05-17T08:39:49.656Z,0.60
2023-05-17T08:42:18.916Z,0.70
2023-05-17T08:44:46.279Z,0.80
2023-05-17T08:47:14.593Z,0.70
2023-05-17T08:49:42.140Z,0.80
2023-05-17T08:52:10.517Z,0.90
2023-05-17T08:54:38.090Z,1.00
2023-05-17T08:57:06.894Z,0.70
2023-05-17T08:59:35.922Z,0.80
2023-05-17T09:02:03.277Z,0.70
2023-05-17T09:04:31.417Z,0.67
2023-05-17T09:06:58.961Z,0.80
2023-05-17T09:09:27.167Z,1.00
2023-05-17T09:11:55.101Z,0.60
2023-05-17T09:14:22.409Z,0.90
2023-05-17T09:16:57.318Z,1.00
2023-05-17T09:19:24.658Z,0.70
2023-05-17T09:21:52.137Z,0.80
2023-05-17T09:24:20.278Z,0.80
2023-05-17T09:26:47.468Z,1.10
2023-05-17T09:29:15.648Z,1.00
2023-05-17T09:31:43.252Z,0.80
2023-05-17T09:34:10.741Z,1.20
2023-05-17T09:36:38.738Z,0.90
2023-05-17T09:39:07.921Z,1.33
2023-05-17T09:41:42.019Z,1.23
2023-05-17T09:44:09.955Z,1.10
2023-05-17T09:46:38.869Z,1.00
2023-05-17T09:49:07.459Z,1.20
2023-05-17T09:51:38.433Z,0.90
2023-05-17T09:54:07.643Z,0.80
2023-05-17T09:56:35.261Z,0.70
2023-05-17T09:59:02.990Z,0.80
2023-05-17T10:01:30.840Z,0.90
2023-05-17T10:04:02.830Z,0.93
2023-05-17T10:06:44.170Z,1.00
2023-05-17T10:09:15.595Z,1.03
2023-05-17T10:11:45.714Z,0.83
2023-05-17T10:14:32.414Z,1.10
2023-05-17T10:17:00.036Z,0.90
2023-05-17T10:19:27.461Z,0.53
2023-05-17T10:21:58.670Z,0.57
2023-05-17T10:24:31.007Z,0.60
2023-05-17T10:26:58.667Z,0.80
2023-05-17T10:29:26.335Z,0.70
2023-05-17T10:31:53.631Z,0.87
2023-05-17T10:34:21.459Z,0.63
2023-05-17T10:36:50.215Z,0.80
2023-05-17T10:39:17.951Z,0.70
2023-05-17T10:41:47.224Z,0.90
2023-05-17T10:44:15.707Z,0.60
2023-05-17T10:46:52.055Z,0.73
2023-05-17T10:49:24.127Z,0.80
2023-05-17T10:51:52.388Z,0.80
2023-05-17T10:54:19.803Z,0.67
2023-05-17T10:56:51.390Z,0.60
2023-05-17T10:59:21.800Z,0.70
2023-05-17T11:01:55.018Z,0.60
2023-05-17T11:04:33.592Z,1.10
2023-05-17T11:07:21.819Z,0.77
2023-05-17T11:09:52.132Z,0.80
2023-05-17T11:12:29.578Z,1.00
2023-05-17T11:14:58.096Z,1.10
2023-05-17T11:17:27.404Z,0.83
2023-05-17T11:19:57.940Z,0.83
2023-05-17T11:22:29.123Z,0.80
2023-05-17T11:24:58.047Z,1.00
2023-05-17T11:27:29.664Z,1.10
2023-05-17T11:29:58.860Z,1.00
2023-05-17T11:32:29.659Z,0.80
2023-05-17T11:34:57.187Z,0.90
2023-05-17T11:37:31.406Z,0.90
2023-05-17T11:40:03.033Z,1.00
2023-05-17T11:42:30.691Z,1.07
2023-05-17T11:44:58.531Z,0.90
2023-05-17T11:47:26.558Z,0.80
2023-05-17T11:49:56.534Z,0.80
2023-05-17T11:52:23.971Z,0.90
2023-05-17T11:54:52.222Z,0.87
2023-05-17T11:57:21.443Z,0.97
2023-05-17T11:59:48.658Z,0.73
2023-05-17T12:02:29.290Z,0.83
2023-05-17T12:04:56.712Z,0.90
2023-05-17T12:07:24.433Z,0.90
2023-05-17T12:09:52.497Z,0.73
2023-05-17T12:12:21.965Z,1.07
2023-05-17T12:14:50.664Z,0.80
2023-05-17T12:17:22.920Z,1.10
2023-05-17T12:19:52.954Z,0.97
2023-05-17T12:22:20.517Z,1.00
2023-05-17T12:24:47.742Z,0.70
2023-05-17T12:27:15.044Z,1.07
2023-05-17T12:29:42.264Z,1.03
2023-05-17T12:32:10.023Z,0.90
2023-05-17T12:34:37.577Z,1.10
2023-05-17T12:37:06.619Z,0.90
2023-05-17T12:39:33.842Z,0.90
2023-05-17T12:42:01.766Z,1.20
2023-05-17T12:44:29.017Z,1.10
2023-05-17T12:46:57.734Z,1.00
2023-05-17T12:49:25.175Z,1.17
2023-05-17T12:51:52.446Z,1.00
2023-05-17T12:54:27.107Z,1.10
2023-05-17T12:56:55.129Z,0.90
2023-05-17T12:59:25.401Z,0.93
2023-05-17T13:01:55.538Z,0.77
2023-05-17T13:04:29.644Z,0.75
2023-05-17T13:07:01.011Z,0.90
2023-05-17T13:09:30.817Z,0.63
2023-05-17T13:11:59.108Z,1.05
2023-05-17T13:14:45.388Z,1.10
2023-05-17T13:17:13.608Z,0.80
2023-05-17T13:19:41.010Z,1.17
2023-05-17T13:22:08.502Z,1.10
2023-05-17T13:24:36.478Z,0.70
2023-05-17T13:27:04.120Z,1.10
2023-05-17T13:29:39.527Z,1.10
2023-05-17T13:32:08.756Z,1.10
2023-05-17T13:34:36.116Z,1.23
2023-05-17T13:37:03.438Z,1.00
2023-05-17T13:39:30.850Z,0.70
2023-05-17T13:41:59.034Z,1.20
2023-05-17T13:44:26.643Z,0.95
2023-05-17T13:46:53.842Z,1.00
2023-05-17T13:49:21.404Z,1.00
2023-05-17T13:51:48.713Z,0.90
2023-05-17T13:54:16.007Z,1.10
2023-05-17T13:56:43.237Z,0.90
2023-05-17T13:59:10.551Z,1.10
2023-05-17T14:01:37.821Z,1.13
2023-05-17T14:04:05.156Z,0.93
2023-05-17T14:06:32.405Z,0.90
2023-05-17T14:09:00.820Z,1.00
2023-05-17T14:11:28.112Z,0.90
2023-05-17T14:13:55.476Z,1.17
2023-05-17T14:16:22.884Z,1.08
2023-05-17T14:18:50.344Z,0.90
2023-05-17T14:21:17.918Z,1.00
2023-05-17T14:23:45.150Z,0.80
2023-05-17T14:26:12.377Z,0.90
2023-05-17T14:28:39.773Z,0.90
2023-05-17T14:31:07.515Z,0.90
2023-05-17T14:33:35.062Z,0.77
2023-05-17T14:36:03.643Z,0.70
2023-05-17T14:38:31.119Z,0.50
2023-05-17T14:41:00.528Z,0.83
2023-05-17T14:43:27.917Z,0.80
2023-05-17T14:45:55.171Z,0.90
2023-05-17T14:48:22.613Z,0.70
2023-05-17T14:50:50.218Z,0.67
2023-05-17T14:53:17.603Z,0.83
2023-05-17T14:55:44.972Z,1.00
2023-05-17T14:58:14.979Z,0.83
2023-05-17T15:00:48.358Z,0.80
2023-05-17T15:03:21.661Z,0.80
2023-05-17T15:05:54.553Z,0.80
2023-05-17T15:08:22.068Z,0.70
2023-05-17T15:10:52.661Z,0.60
2023-05-17T15:13:19.851Z,0.97
2023-05-17T15:15:47.377Z,0.90
2023-05-17T15:18:14.781Z,0.80
2023-05-17T15:20:42.270Z,1.00
2023-05-17T15:23:09.538Z,0.70
2023-05-17T15:25:36.895Z,0.97
2023-05-17T15:28:04.233Z,0.90
2023-05-17T15:30:31.576Z,1.03
2023-05-17T15:32:59.431Z,0.85
2023-05-17T15:35:27.765Z,0.80
2023-05-17T15:37:55.377Z,0.90
2023-05-17T15:40:22.800Z,0.77
2023-05-17T15:42:52.454Z,1.02
2023-05-17T15:45:23.068Z,1.20
2023-05-17T15:47:50.662Z,0.80
2023-05-17T15:50:18.013Z,0.90
2023-05-17T15:52:47.302Z,1.00
2023-05-17T15:55:14.616Z,0.88
2023-05-17T15:57:42.253Z,0.90
2023-05-17T16:00:09.825Z,0.93
2023-05-17T16:02:37.089Z,0.85
2023-05-17T16:05:04.608Z,1.27
2023-05-17T16:07:32.517Z,0.90
2023-05-17T16:09:59.748Z,1.20
2023-05-17T16:12:26.954Z,1.00
2023-05-17T16:14:54.137Z,1.00
2023-05-17T16:17:21.396Z,1.13
2023-05-17T16:19:48.667Z,0.98
2023-05-17T16:22:16.488Z,1.15
2023-05-17T16:24:43.742Z,1.20
2023-05-17T16:27:10.993Z,1.20
2023-05-17T16:29:40.193Z,1.40
2023-05-17T16:32:08.441Z,1.27
2023-05-17T16:34:36.068Z,1.00
2023-05-17T16:37:04.753Z,1.40
2023-05-17T16:39:32.738Z,1.20
2023-05-17T16:42:00.039Z,1.20
2023-05-17T16:44:27.383Z,1.42
2023-05-17T16:46:54.679Z,1.40
2023-05-17T16:49:21.910Z,1.30
2023-05-17T16:51:51.215Z,1.67
2023-05-17T16:54:18.610Z,1.40
2023-05-17T16:56:45.834Z,1.45
2023-05-17T16:59:13.094Z,1.50
2023-05-17T17:01:40.397Z,1.40
2023-05-17T17:04:07.755Z,1.20
2023-05-17T17:06:35.436Z,1.05
2023-05-17T17:09:07.737Z,1.30
2023-05-17T17:11:35.314Z,1.30
2023-05-17T17:14:02.772Z,1.23
2023-05-17T17:16:31.215Z,1.38
2023-05-17T17:18:58.950Z,1.20
2023-05-17T17:21:26.542Z,1.42
2023-05-17T17:23:53.860Z,1.42
2023-05-17T17:26:21.986Z,1.42
2023-05-17T17:28:49.257Z,1.48
2023-05-17T17:31:18.185Z,1.67
2023-05-17T17:33:45.581Z,1.50
2023-05-17T17:36:12.847Z,1.50
2023-05-17T17:38:40.051Z,1.50
2023-05-17T17:41:07.326Z,1.60
2023-05-17T17:43:34.549Z,1.35
2023-05-17T17:46:01.844Z,1.60
2023-05-17T17:48:29.083Z,1.55
2023-05-17T17:50:56.429Z,1.92
2023-05-17T17:53:23.628Z,1.80
2023-05-17T17:55:51.107Z,1.60
2023-05-17T17:58:18.345Z,1.70
2023-05-17T18:00:45.594Z,1.80
2023-05-17T18:03:13.260Z,2.10
2023-05-17T18:05:40.661Z,1.60
2023-05-17T18:08:08.158Z,1.77
2023-05-17T18:10:35.464Z,1.63
2023-05-17T18:13:02.803Z,1.60
2023-05-17T18:15:29.994Z,1.60
2023-05-17T18:17:57.302Z,1.97
2023-05-17T18:20:26.290Z,1.97
2023-05-17T18:22:53.648Z,1.90
2023-05-17T18:25:20.883Z,1.47
2023-05-17T18:27:48.164Z,1.60
2023-05-17T18:30:15.499Z,1.60
2023-05-17T18:32:42.852Z,1.70
2023-05-17T18:35:10.497Z,1.63
2023-05-17T18:37:37.739Z,1.63
2023-05-17T18:40:05.345Z,1.80
2023-05-17T18:42:32.552Z,1.77
2023-05-17T18:45:00.987Z,1.90
2023-05-17T18:47:29.610Z,1.90
2023-05-17T18:49:56.826Z,2.07
2023-05-17T18:52:24.057Z,1.90
2023-05-17T18:54:51.264Z,1.87
2023-05-17T18:57:18.493Z,2.40
2023-05-17T18:59:45.732Z,2.00
2023-05-17T19:02:12.964Z,1.50
2023-05-17T19:04:40.591Z,2.10
2023-05-17T19:07:07.941Z,1.70
2023-05-17T19:09:35.223Z,1.87
2023-05-17T19:12:02.537Z,1.70
2023-05-17T19:14:29.862Z,1.80
2023-05-17T19:16:57.223Z,1.80
2023-05-17T19:19:25.212Z,1.70
2023-05-17T19:21:52.596Z,1.70
2023-05-17T19:24:19.829Z,1.67
2023-05-17T19:26:47.018Z,2.10
2023-05-17T19:29:14.261Z,1.50
2023-05-17T19:31:41.495Z,1.50
2023-05-17T19:34:08.733Z,1.70
2023-05-17T19:36:36.008Z,1.73
2023-05-17T19:39:03.260Z,1.67
2023-05-17T19:41:30.591Z,1.73
2023-05-17T19:43:57.789Z,1.63
2023-05-17T19:46:25.091Z,1.70
2023-05-17T19:48:53.016Z,1.90
2023-05-17T19:51:20.360Z,1.90
2023-05-17T19:53:53.114Z,1.83
2023-05-17T19:56:21.458Z,1.80
2023-05-17T19:58:48.698Z,1.93
2023-05-17T20:01:15.956Z,1.90
2023-05-17T20:03:43.324Z,2.03
2023-05-17T20:06:14.183Z,1.90
2023-05-17T20:08:41.943Z,2.10
2023-05-17T20:11:09.260Z,1.53
2023-05-17T20:13:40.114Z,2.40
2023-05-17T20:16:12.682Z,2.10
2023-05-17T20:18:42.604Z,1.80
2023-05-17T20:21:11.446Z,2.00
2023-05-17T20:23:38.966Z,1.90
2023-05-17T20:26:06.205Z,1.80
2023-05-17T20:28:33.429Z,1.60
2023-05-17T20:31:00.824Z,1.90
2023-05-17T20:33:28.174Z,1.97
2023-05-17T20:35:55.630Z,1.80
2023-05-17T20:38:22.928Z,1.77
2023-05-17T20:40:51.982Z,2.23
2023-05-17T20:43:19.791Z,2.00
2023-05-17T20:45:47.058Z,2.43
2023-05-17T20:48:14.356Z,2.30
2023-05-17T20:50:41.567Z,1.93
2023-05-17T20:53:10.610Z,1.90
2023-05-17T20:55:37.940Z,2.27
2023-05-17T20:58:05.263Z,2.10
2023-05-17T21:00:32.492Z,2.00
2023-05-17T21:02:59.842Z,1.80
2023-05-17T21:05:28.449Z,2.17
2023-05-17T21:07:56.622Z,2.40
2023-05-17T21:10:23.818Z,2.30
2023-05-17T21:12:51.103Z,2.40
2023-05-17T21:15:18.405Z,2.60
2023-05-17T21:17:45.740Z,2.70
2023-05-17T21:20:13.288Z,2.80
2023-05-17T21:22:40.629Z,3.13
2023-05-17T21:25:08.133Z,3.20
2023-05-17T21:27:35.397Z,3.17
2023-05-17T21:30:02.682Z,3.03
2023-05-17T21:32:29.900Z,3.60
2023-05-17T21:34:59.640Z,3.70
2023-05-17T21:37:26.931Z,3.83
2023-05-17T21:39:54.112Z,3.50
2023-05-17T21:42:21.427Z,3.60
2023-05-17T21:44:48.678Z,3.30
2023-05-17T21:47:15.995Z,3.50
2023-05-17T21:49:43.308Z,3.90
2023-05-17T21:52:10.702Z,3.97
2023-05-17T21:54:37.979Z,3.93
2023-05-17T21:57:05.386Z,3.63
2023-05-17T21:59:32.593Z,3.50
2023-05-17T22:01:59.779Z,3.77
2023-05-17T22:04:27.241Z,3.60
2023-05-17T22:06:55.694Z,3.70
2023-05-17T22:09:23.049Z,4.23
2023-05-17T22:11:50.294Z,4.00
2023-05-17T22:14:17.522Z,3.93
2023-05-17T22:16:45.114Z,3.97
2023-05-17T22:19:12.381Z,4.03
2023-05-17T22:21:39.652Z,4.20
2023-05-17T22:24:07.201Z,3.67
2023-05-17T22:26:34.461Z,4.07
2023-05-17T22:29:01.725Z,4.50
2023-05-17T22:31:29.098Z,4.17
2023-05-17T22:33:56.371Z,3.53
2023-05-17T22:36:24.961Z,3.60
2023-05-17T22:38:52.301Z,4.10
2023-05-17T22:41:19.554Z,4.53
2023-05-17T22:43:46.763Z,4.30
2023-05-17T22:46:14.033Z,4.50
2023-05-17T22:48:41.221Z,4.33
2023-05-17T22:51:08.528Z,4.07
2023-05-17T22:53:35.802Z,5.18
2023-05-17T22:56:03.038Z,4.57
2023-05-17T22:58:30.523Z,4.67
2023-05-17T23:00:57.725Z,4.00
2023-05-17T23:03:24.939Z,4.10
2023-05-17T23:06:02.118Z,3.73
2023-05-17T23:08:30.231Z,3.97
2023-05-17T23:10:58.493Z,4.37
2023-05-17T23:13:26.252Z,4.30
2023-05-17T23:15:53.939Z,4.50
2023-05-17T23:18:21.416Z,4.40
2023-05-17T23:20:49.042Z,4.40
2023-05-17T23:23:16.596Z,4.43
2023-05-17T23:25:48.406Z,4.03
2023-05-17T23:28:15.798Z,4.57
2023-05-17T23:30:44.426Z,4.53
2023-05-17T23:33:11.650Z,4.40
2023-05-17T23:35:38.994Z,4.80
2023-05-17T23:38:07.177Z,4.10
2023-05-17T23:40:34.443Z,4.20
2023-05-17T23:43:01.750Z,4.77
2023-05-17T23:45:29.866Z,5.17
2023-05-17T23:48:00.618Z,4.33
2023-05-17T23:50:28.031Z,4.33
2023-05-17T23:52:55.994Z,4.37
2023-05-17T23:55:23.314Z,4.63
2023-05-17T23:57:50.541Z,4.43
